createdAt,value
2023-04-11T00:01:51.345Z,7.34
2023-04-11T00:04:21.077Z,7.31
2023-04-11T00:06:49.291Z,7.29
2023-04-11T00:09:17.874Z,7.40
2023-04-11T00:11:48.124Z,7.19
2023-04-11T00:14:17.734Z,7.41
2023-04-11T00:16:45.811Z,7.39
2023-04-11T00:19:15.404Z,7.33
2023-04-11T00:21:44.289Z,7.27
2023-04-11T00:24:12.255Z,7.20
2023-04-11T00:26:40.164Z,7.25
2023-04-11T00:29:09.526Z,7.27
2023-04-11T00:31:37.428Z,7.16
2023-04-11T00:34:05.782Z,7.21
2023-04-11T00:36:33.768Z,7.22
2023-04-11T00:39:02.406Z,7.18
2023-04-11T00:41:30.405Z,7.19
2023-04-11T00:43:58.794Z,7.15
2023-04-11T00:46:28.261Z,7.18
2023-04-11T00:48:56.512Z,7.10
2023-04-11T00:51:24.753Z,7.06
2023-04-11T00:53:52.785Z,7.04
2023-04-11T00:56:20.972Z,7.08
2023-04-11T00:58:49.378Z,6.98
2023-04-11T01:01:20.045Z,7.07
2023-04-11T01:03:49.579Z,7.11
2023-04-11T01:06:19.947Z,7.12
2023-04-11T01:08:48.892Z,7.11
2023-04-11T01:11:20.237Z,7.11
2023-04-11T01:13:48.834Z,7.15
2023-04-11T01:16:21.399Z,7.14
2023-04-11T01:18:51.135Z,7.07
2023-04-11T01:21:20.918Z,7.09
2023-04-11T01:23:52.935Z,7.13
2023-04-11T01:26:22.180Z,7.10
2023-04-11T01:28:50.117Z,7.08
2023-04-11T01:31:18.159Z,7.10
2023-04-11T01:33:46.177Z,6.82
2023-04-11T01:36:14.517Z,7.06
2023-04-11T01:38:42.886Z,7.08
2023-04-11T01:41:12.506Z,7.09
2023-04-11T01:43:41.109Z,7.02
2023-04-11T01:46:09.636Z,6.97
2023-04-11T01:48:38.664Z,7.01
2023-04-11T01:51:07.629Z,7.03
2023-04-11T01:53:35.744Z,7.05
2023-04-11T01:56:03.695Z,6.97
2023-04-11T01:58:33.017Z,6.99
2023-04-11T02:01:01.939Z,6.99
2023-04-11T02:03:30.224Z,6.99
2023-04-11T02:05:59.055Z,7.02
2023-04-11T02:08:27.033Z,6.99
2023-04-11T02:10:54.993Z,6.98
2023-04-11T02:13:23.350Z,7.03
2023-04-11T02:15:52.825Z,7.06
2023-04-11T02:18:21.068Z,7.08
2023-04-11T02:20:50.254Z,6.97
2023-04-11T02:23:18.291Z,6.96
2023-04-11T02:25:46.350Z,6.97
2023-04-11T02:28:14.337Z,6.89
2023-04-11T02:30:42.275Z,6.85
2023-04-11T02:33:12.060Z,6.80
2023-04-11T02:35:40.062Z,6.76
2023-04-11T02:38:08.092Z,6.78
2023-04-11T02:40:36.085Z,6.78
2023-04-11T02:43:04.099Z,6.78
2023-04-11T02:45:32.305Z,6.70
2023-04-11T02:48:00.437Z,6.72
2023-04-11T02:50:30.877Z,6.70
2023-04-11T02:52:58.846Z,6.72
2023-04-11T02:55:27.160Z,6.75
2023-04-11T02:57:55.142Z,6.77
2023-04-11T03:00:23.308Z,6.73
2023-04-11T03:02:51.272Z,6.68
2023-04-11T03:05:19.193Z,6.72
2023-04-11T03:07:48.554Z,6.67
2023-04-11T03:10:16.660Z,6.66
2023-04-11T03:12:44.599Z,6.69
2023-04-11T03:15:15.544Z,6.67
2023-04-11T03:17:43.718Z,6.65
2023-04-11T03:20:13.758Z,6.69
2023-04-11T03:22:41.752Z,6.66
2023-04-11T03:25:11.457Z,6.58
2023-04-11T03:27:39.486Z,6.68
2023-04-11T03:30:08.805Z,6.66
2023-04-11T03:32:36.838Z,6.62
2023-04-11T03:35:05.078Z,6.66
2023-04-11T03:37:33.048Z,6.65
2023-04-11T03:40:00.970Z,6.62
2023-04-11T03:42:30.254Z,6.61
2023-04-11T03:44:58.186Z,6.61
2023-04-11T03:47:26.292Z,6.62
2023-04-11T03:49:54.198Z,6.59
2023-04-11T03:52:22.168Z,6.60
2023-04-11T03:54:50.132Z,6.63
2023-04-11T03:57:18.109Z,6.60
2023-04-11T03:59:47.980Z,6.61
2023-04-11T04:02:16.822Z,6.62
2023-04-11T04:04:48.805Z,6.60
2023-04-11T04:07:18.241Z,6.59
2023-04-11T04:09:46.230Z,6.56
2023-04-11T04:12:14.169Z,6.52
2023-04-11T04:14:42.151Z,6.53
2023-04-11T04:17:11.659Z,6.51
2023-04-11T04:19:39.723Z,6.51
2023-04-11T04:22:11.742Z,6.51
2023-04-11T04:24:42.082Z,6.37
2023-04-11T04:27:10.544Z,6.37
2023-04-11T04:29:39.702Z,6.19
2023-04-11T04:32:11.272Z,6.20
2023-04-11T04:34:46.966Z,6.46
2023-04-11T04:37:21.944Z,6.45
2023-04-11T04:39:54.392Z,5.99
2023-04-11T04:42:24.007Z,6.39
2023-04-11T04:44:52.594Z,6.44
2023-04-11T04:47:21.140Z,6.45
2023-04-11T04:49:50.494Z,6.45
2023-04-11T04:52:18.513Z,6.17
2023-04-11T04:54:46.921Z,6.51
2023-04-11T04:57:14.889Z,6.12
2023-04-11T04:59:43.208Z,6.39
2023-04-11T05:02:11.435Z,6.41
2023-04-11T05:04:39.830Z,6.57
2023-04-11T05:07:09.357Z,6.18
2023-04-11T05:09:37.285Z,6.58
2023-04-11T05:12:07.112Z,6.65
2023-04-11T05:14:35.415Z,6.66
2023-04-11T05:17:03.525Z,6.65
2023-04-11T05:19:32.393Z,6.61
2023-04-11T05:22:00.858Z,6.71
2023-04-11T05:24:30.285Z,6.77
2023-04-11T05:26:58.354Z,6.83
2023-04-11T05:29:26.425Z,6.81
2023-04-11T05:31:54.425Z,6.65
2023-04-11T05:34:22.871Z,6.90
2023-04-11T05:36:51.103Z,6.81
2023-04-11T05:39:19.019Z,7.07
2023-04-11T05:41:48.795Z,6.94
2023-04-11T05:44:17.164Z,7.08
2023-04-11T05:46:45.165Z,7.20
2023-04-11T05:49:13.407Z,7.29
2023-04-11T05:51:41.457Z,7.39
2023-04-11T05:54:09.436Z,7.48
2023-04-11T05:56:39.803Z,7.57
2023-04-11T05:59:09.231Z,7.67
2023-04-11T06:01:40.107Z,7.67
2023-04-11T06:04:08.309Z,7.74
2023-04-11T06:06:36.593Z,7.77
2023-04-11T06:09:05.297Z,7.81
2023-04-11T06:11:33.258Z,7.84
2023-04-11T06:14:01.492Z,7.99
2023-04-11T06:16:32.742Z,8.03
2023-04-11T06:19:01.298Z,8.05
2023-04-11T06:21:29.306Z,8.38
2023-04-11T06:24:00.595Z,8.70
2023-04-11T06:26:28.646Z,9.21
2023-04-11T06:28:56.585Z,9.47
2023-04-11T06:31:24.869Z,9.80
2023-04-11T06:33:54.770Z,10.09
2023-04-11T06:36:23.196Z,10.56
2023-04-11T06:38:51.193Z,10.44
2023-04-11T06:41:19.323Z,10.40
2023-04-11T06:43:47.274Z,10.72
2023-04-11T06:46:15.290Z,10.76
2023-04-11T06:48:43.744Z,10.70
2023-04-11T06:51:13.257Z,10.36
2023-04-11T06:53:41.365Z,10.10
2023-04-11T06:56:10.616Z,9.73
2023-04-11T06:58:38.558Z,9.35
2023-04-11T07:01:07.264Z,8.91
2023-04-11T07:03:35.336Z,8.91
2023-04-11T07:06:03.532Z,8.89
2023-04-11T07:08:33.048Z,8.90
2023-04-11T07:11:01.150Z,8.98
2023-04-11T07:13:29.284Z,8.66
2023-04-11T07:15:57.351Z,8.22
2023-04-11T07:18:26.065Z,9.05
2023-04-11T07:20:54.003Z,9.24
2023-04-11T07:23:23.723Z,9.27
2023-04-11T07:25:54.547Z,9.60
2023-04-11T07:28:23.759Z,9.57
2023-04-11T07:30:51.692Z,9.97
2023-04-11T07:33:19.961Z,10.20
2023-04-11T07:35:48.067Z,10.40
2023-04-11T07:38:29.652Z,10.60
2023-04-11T07:41:01.154Z,10.23
2023-04-11T07:43:30.199Z,10.09
2023-04-11T07:46:00.919Z,10.09
2023-04-11T07:48:29.431Z,10.16
2023-04-11T07:50:57.475Z,10.04
2023-04-11T07:53:26.875Z,10.30
2023-04-11T07:55:57.347Z,10.42
2023-04-11T07:58:26.767Z,10.50
2023-04-11T08:00:58.381Z,10.48
2023-04-11T08:03:27.331Z,11.49
2023-04-11T08:05:56.224Z,11.84
2023-04-11T08:08:24.406Z,11.70
2023-04-11T08:10:52.522Z,11.69
2023-04-11T08:13:20.535Z,11.24
2023-04-11T08:15:49.865Z,11.09
2023-04-11T08:18:21.585Z,10.96
2023-04-11T08:20:49.692Z,10.66
2023-04-11T08:23:20.336Z,10.46
2023-04-11T08:25:48.749Z,10.88
2023-04-11T08:28:18.661Z,11.11
2023-04-11T08:30:46.773Z,11.06
2023-04-11T08:33:16.435Z,11.16
2023-04-11T08:35:44.505Z,11.05
2023-04-11T08:38:12.621Z,11.60
2023-04-11T08:40:40.629Z,11.49
2023-04-11T08:43:12.373Z,11.75
2023-04-11T08:45:43.315Z,12.49
2023-04-11T08:48:12.676Z,12.15
2023-04-11T08:50:42.771Z,11.56
2023-04-11T08:53:10.965Z,11.47
2023-04-11T08:55:46.332Z,11.92
2023-04-11T08:58:14.655Z,12.40
2023-04-11T09:00:42.732Z,12.75
2023-04-11T09:03:12.575Z,13.37
2023-04-11T09:05:44.696Z,13.24
2023-04-11T09:08:14.420Z,13.08
2023-04-11T09:10:45.769Z,13.32
2023-04-11T09:13:23.662Z,12.60
2023-04-11T09:16:06.169Z,13.04
2023-04-11T09:18:35.337Z,12.75
2023-04-11T09:21:07.035Z,12.02
2023-04-11T09:23:35.517Z,12.21
2023-04-11T09:26:06.298Z,12.69
2023-04-11T09:28:43.057Z,12.40
2023-04-11T09:31:13.576Z,11.94
2023-04-11T09:33:53.943Z,11.98
2023-04-11T09:36:25.442Z,11.90
2023-04-11T09:38:56.811Z,11.65
2023-04-11T09:41:32.455Z,10.76
2023-04-11T09:44:03.912Z,11.51
2023-04-11T09:46:32.079Z,11.55
2023-04-11T09:49:03.263Z,11.59
2023-04-11T09:51:36.916Z,11.30
2023-04-11T09:54:06.482Z,11.35
2023-04-11T09:56:35.544Z,11.62
2023-04-11T09:59:05.176Z,11.70
2023-04-11T10:01:33.608Z,11.50
2023-04-11T10:04:02.278Z,11.61
2023-04-11T10:06:35.061Z,11.82
2023-04-11T10:09:08.486Z,12.02
2023-04-11T10:11:36.988Z,11.94
2023-04-11T10:14:05.184Z,11.98
2023-04-11T10:16:34.512Z,12.14
2023-04-11T10:19:25.294Z,12.33
2023-04-11T10:21:54.752Z,13.14
2023-04-11T10:24:22.973Z,12.96
2023-04-11T10:26:52.774Z,12.75
2023-04-11T10:29:51.390Z,12.62
2023-04-11T10:32:25.986Z,13.42
2023-04-11T10:35:22.894Z,13.91
2023-04-11T10:37:52.633Z,14.35
2023-04-11T10:40:21.724Z,15.84
2023-04-11T10:42:50.171Z,15.67
2023-04-11T10:45:24.496Z,15.90
2023-04-11T10:48:11.693Z,16.10
2023-04-11T10:50:44.568Z,16.70
2023-04-11T10:53:36.712Z,16.58
2023-04-11T10:56:05.009Z,16.77
2023-04-11T10:58:37.989Z,16.59
2023-04-11T11:01:31.178Z,15.46
2023-04-11T11:04:06.298Z,16.04
2023-04-11T11:06:46.036Z,16.55
2023-04-11T11:09:27.001Z,17.25
2023-04-11T11:12:07.920Z,15.94
2023-04-11T11:14:36.348Z,14.99
2023-04-11T11:17:04.719Z,14.13
2023-04-11T11:19:33.418Z,13.67
2023-04-11T11:22:04.089Z,13.34
2023-04-11T11:24:33.666Z,13.40
2023-04-11T11:27:01.671Z,13.25
2023-04-11T11:29:32.878Z,13.38
2023-04-11T11:32:03.527Z,14.08
2023-04-11T11:34:33.238Z,15.54
2023-04-11T11:37:04.889Z,15.81
2023-04-11T11:39:35.650Z,16.59
2023-04-11T11:42:06.121Z,16.90
2023-04-11T11:44:34.495Z,16.25
2023-04-11T11:47:03.930Z,15.00
2023-04-11T11:49:45.839Z,14.56
2023-04-11T11:52:14.190Z,13.98
2023-04-11T11:54:47.992Z,14.04
2023-04-11T11:57:23.375Z,16.37
2023-04-11T11:59:55.066Z,15.35
2023-04-11T12:02:25.589Z,15.07
2023-04-11T12:05:00.245Z,14.72
2023-04-11T12:07:32.692Z,14.31
2023-04-11T12:10:02.470Z,13.95
2023-04-11T12:12:36.335Z,13.77
2023-04-11T12:15:04.992Z,14.42
2023-04-11T12:17:37.847Z,15.00
2023-04-11T12:22:54.663Z,15.97
2023-04-11T12:25:25.877Z,15.74
2023-04-11T12:27:54.049Z,15.34
2023-04-11T12:30:22.098Z,14.80
2023-04-11T12:32:50.293Z,14.18
2023-04-11T12:35:18.385Z,14.26
2023-04-11T12:37:46.704Z,14.11
2023-04-11T12:40:17.778Z,14.21
2023-04-11T12:42:56.885Z,14.50
2023-04-11T12:45:26.153Z,14.59
2023-04-11T12:47:54.662Z,14.58
2023-04-11T12:50:24.525Z,14.87
2023-04-11T12:55:39.856Z,14.36
2023-04-11T12:58:09.475Z,14.60
2023-04-11T13:00:37.419Z,14.43
2023-04-11T13:03:06.146Z,14.61
2023-04-11T13:05:34.352Z,14.63
2023-04-11T13:08:02.654Z,14.26
2023-04-11T13:10:30.609Z,14.60
2023-04-11T13:13:05.433Z,14.97
2023-04-11T13:15:41.606Z,15.13
2023-04-11T13:18:09.576Z,14.87
2023-04-11T13:20:37.762Z,14.81
2023-04-11T13:23:05.783Z,14.06
2023-04-11T13:25:33.755Z,14.86
2023-04-11T13:28:02.515Z,14.53
2023-04-11T13:30:30.579Z,14.31
2023-04-11T13:33:00.080Z,14.14
2023-04-11T13:35:28.161Z,14.00
2023-04-11T13:37:56.218Z,13.80
2023-04-11T13:40:24.205Z,13.72
2023-04-11T13:42:54.622Z,13.76
2023-04-11T13:45:22.818Z,13.90
2023-04-11T13:47:51.033Z,13.79
2023-04-11T13:50:20.353Z,13.58
2023-04-11T13:52:48.399Z,13.67
2023-04-11T13:55:16.450Z,13.63
2023-04-11T13:57:44.605Z,13.77
2023-04-11T14:00:13.502Z,13.93
2023-04-11T14:02:42.399Z,13.88
2023-04-11T14:05:12.031Z,13.90
2023-04-11T14:07:41.518Z,13.78
2023-04-11T14:10:10.686Z,13.58
2023-04-11T14:12:39.235Z,13.44
2023-04-11T14:15:09.057Z,13.52
2023-04-11T14:17:37.167Z,13.45
2023-04-11T14:20:06.972Z,13.41
2023-04-11T14:22:35.283Z,13.46
2023-04-11T14:25:05.560Z,13.42
2023-04-11T14:27:33.666Z,13.39
2023-04-11T14:30:01.891Z,13.35
2023-04-11T14:32:30.136Z,13.36
2023-04-11T14:34:59.112Z,13.21
2023-04-11T14:37:28.114Z,13.14
2023-04-11T14:39:56.030Z,13.17
2023-04-11T14:42:25.589Z,12.86
2023-04-11T14:44:53.762Z,12.87
2023-04-11T14:47:23.009Z,13.31
2023-04-11T14:49:50.934Z,13.12
2023-04-11T14:52:19.185Z,13.09
2023-04-11T14:54:47.353Z,13.03
2023-04-11T14:57:15.708Z,13.06
2023-04-11T14:59:45.434Z,12.93
2023-04-11T15:02:13.669Z,12.60
2023-04-11T15:04:41.805Z,12.95
2023-04-11T15:07:10.129Z,12.89
2023-04-11T15:09:38.091Z,12.95
2023-04-11T15:12:06.882Z,12.89
2023-04-11T15:14:34.897Z,12.86
2023-04-11T15:17:04.335Z,12.86
2023-04-11T15:19:32.280Z,12.86
2023-04-11T15:22:00.312Z,12.70
2023-04-11T15:24:28.485Z,12.43
2023-04-11T15:26:56.768Z,12.67
2023-04-11T15:29:25.263Z,12.76
2023-04-11T15:31:53.368Z,12.73
2023-04-11T15:34:23.666Z,12.72
2023-04-11T15:36:51.693Z,12.76
2023-04-11T15:39:19.961Z,12.55
2023-04-11T15:41:48.577Z,12.79
2023-04-11T15:44:16.629Z,12.39
2023-04-11T15:46:46.944Z,12.68
2023-04-11T15:49:16.850Z,12.60
2023-04-11T15:51:47.634Z,12.55
2023-04-11T15:54:15.879Z,12.49
2023-04-11T15:56:43.873Z,12.47
2023-04-11T15:59:13.146Z,12.44
2023-04-11T16:01:41.605Z,12.44
2023-04-11T16:04:11.450Z,12.40
2023-04-11T16:06:39.626Z,12.34
2023-04-11T16:09:10.742Z,12.23
2023-04-11T16:11:40.143Z,12.33
2023-04-11T16:14:08.175Z,12.30
2023-04-11T16:16:36.259Z,12.15
2023-04-11T16:19:04.305Z,12.20
2023-04-11T16:21:32.946Z,12.20
2023-04-11T16:24:01.244Z,11.99
2023-04-11T16:26:30.999Z,12.09
2023-04-11T16:28:59.075Z,12.04
2023-04-11T16:31:27.397Z,11.80
2023-04-11T16:33:56.270Z,11.95
2023-04-11T16:36:24.911Z,11.66
2023-04-11T16:38:52.925Z,11.88
2023-04-11T16:41:20.960Z,11.85
2023-04-11T16:43:51.261Z,11.75
2023-04-11T16:46:19.423Z,11.76
2023-04-11T16:48:47.922Z,11.58
2023-04-11T16:51:18.418Z,11.75
2023-04-11T16:53:47.501Z,11.75
2023-04-11T16:56:15.522Z,11.70
2023-04-11T16:58:43.573Z,11.66
2023-04-11T17:01:13.908Z,11.49
2023-04-11T17:03:43.384Z,11.31
2023-04-11T17:06:14.867Z,11.45
2023-04-11T17:08:43.595Z,11.09
2023-04-11T17:11:12.256Z,11.42
2023-04-11T17:13:40.838Z,11.38
2023-04-11T17:16:10.913Z,11.37
2023-04-11T17:18:41.122Z,11.28
2023-04-11T17:21:09.359Z,11.36
2023-04-11T17:23:43.118Z,10.82
2023-04-11T17:26:12.176Z,11.25
2023-04-11T17:28:40.868Z,11.18
2023-04-11T17:31:15.855Z,11.31
2023-04-11T17:33:47.937Z,11.27
2023-04-11T17:36:16.353Z,10.78
2023-04-11T17:38:45.393Z,11.26
2023-04-11T17:41:15.446Z,11.21
2023-04-11T17:43:44.033Z,11.19
2023-04-11T17:46:12.570Z,11.19
2023-04-11T17:48:40.699Z,11.14
2023-04-11T17:51:10.252Z,11.13
2023-04-11T17:53:38.303Z,11.13
2023-04-11T17:56:08.116Z,11.04
2023-04-11T17:58:37.360Z,11.01
2023-04-11T18:01:11.055Z,11.06
2023-04-11T18:03:40.352Z,10.73
2023-04-11T18:06:10.916Z,11.06
2023-04-11T18:08:50.288Z,11.09
2023-04-11T18:11:19.504Z,10.37
2023-04-11T18:13:53.794Z,11.13
2023-04-11T18:16:22.511Z,11.14
2023-04-11T18:18:51.681Z,11.12
2023-04-11T18:21:21.566Z,11.18
2023-04-11T18:23:49.967Z,11.15
2023-04-11T18:26:18.335Z,11.14
2023-04-11T18:28:46.350Z,10.89
2023-04-11T18:31:15.588Z,11.07
2023-04-11T18:33:45.911Z,11.09
2023-04-11T18:36:15.595Z,10.65
2023-04-11T18:38:45.185Z,11.03
2023-04-11T18:41:13.372Z,10.99
2023-04-11T18:43:42.212Z,10.95
2023-04-11T18:46:10.797Z,10.93
2023-04-11T18:48:39.401Z,10.79
2023-04-11T18:51:07.987Z,10.65
2023-04-11T18:53:36.844Z,10.84
2023-04-11T18:56:07.479Z,10.80
2023-04-11T18:58:40.000Z,10.76
2023-04-11T19:01:15.586Z,10.77
2023-04-11T19:03:46.256Z,10.39
2023-04-11T19:06:18.349Z,10.70
2023-04-11T19:08:48.561Z,10.63
2023-04-11T19:11:34.035Z,10.68
2023-04-11T19:16:48.433Z,10.56
2023-04-11T19:19:16.716Z,10.47
2023-04-11T19:21:44.607Z,10.51
2023-04-11T19:24:12.573Z,10.50
2023-04-11T19:26:42.128Z,10.42
2023-04-11T19:29:10.170Z,10.40
2023-04-11T19:31:46.717Z,10.33
2023-04-11T19:34:15.371Z,10.38
2023-04-11T19:36:44.880Z,10.09
2023-04-11T19:39:13.156Z,10.32
2023-04-11T19:41:45.660Z,10.29
2023-04-11T19:44:13.904Z,10.28
2023-04-11T19:46:42.271Z,10.17
2023-04-11T19:49:12.505Z,10.12
2023-04-11T19:51:40.736Z,10.06
2023-04-11T19:54:08.768Z,9.67
2023-04-11T19:56:39.763Z,10.16
2023-04-11T19:59:09.183Z,10.13
2023-04-11T20:01:37.217Z,10.09
2023-04-11T20:04:15.979Z,10.08
2023-04-11T20:06:45.096Z,10.00
2023-04-11T20:09:13.070Z,10.01
2023-04-11T20:11:43.142Z,9.99
2023-04-11T20:14:14.990Z,9.95
2023-04-11T20:16:43.153Z,9.90
2023-04-11T20:19:11.552Z,9.88
2023-04-11T20:21:44.905Z,9.85
2023-04-11T20:24:12.964Z,9.83
2023-04-11T20:26:41.220Z,9.50
2023-04-11T20:29:09.183Z,9.84
2023-04-11T20:31:38.473Z,9.80
2023-04-11T20:34:06.345Z,9.68
2023-04-11T20:36:36.061Z,9.77
2023-04-11T20:39:04.626Z,9.74
2023-04-11T20:41:32.773Z,9.25
2023-04-11T20:44:00.909Z,9.73
2023-04-11T20:46:29.856Z,9.72
2023-04-11T20:48:59.479Z,9.71
2023-04-11T20:51:27.537Z,9.71
2023-04-11T20:53:55.856Z,9.64
2023-04-11T20:56:24.041Z,9.51
2023-04-11T20:58:51.995Z,9.72
2023-04-11T21:01:20.009Z,9.84
2023-04-11T21:03:48.348Z,9.05
2023-04-11T21:06:17.741Z,9.80
2023-04-11T21:08:45.945Z,9.49
2023-04-11T21:11:13.974Z,9.57
2023-04-11T21:13:41.952Z,9.71
2023-04-11T21:16:11.136Z,9.71
2023-04-11T21:18:39.161Z,9.68
2023-04-11T21:21:07.455Z,9.65
2023-04-11T21:23:37.869Z,9.63
2023-04-11T21:26:06.120Z,9.54
2023-04-11T21:28:34.186Z,9.62
2023-04-11T21:31:02.272Z,9.64
2023-04-11T21:33:30.308Z,9.63
2023-04-11T21:35:58.423Z,9.60
2023-04-11T21:38:26.440Z,9.61
2023-04-11T21:40:57.960Z,9.48
2023-04-11T21:43:26.007Z,9.61
2023-04-11T21:45:54.100Z,9.64
2023-04-11T21:48:22.230Z,9.64
2023-04-11T21:50:50.278Z,9.66
2023-04-11T21:53:18.434Z,9.65
2023-04-11T21:55:47.324Z,9.69
2023-04-11T21:58:28.582Z,9.66
2023-04-11T22:00:57.357Z,9.21
2023-04-11T22:03:26.855Z,9.61
2023-04-11T22:05:55.036Z,9.59
2023-04-11T22:08:23.301Z,9.57
2023-04-11T22:10:52.566Z,9.31
2023-04-11T22:13:22.031Z,9.46
2023-04-11T22:15:58.325Z,9.58
2023-04-11T22:18:27.212Z,9.58
2023-04-11T22:20:55.360Z,9.50
2023-04-11T22:23:25.031Z,9.57
2023-04-11T22:25:57.708Z,9.57
2023-04-11T22:28:27.179Z,9.52
2023-04-11T22:30:57.681Z,9.53
2023-04-11T22:33:25.746Z,9.52
2023-04-11T22:35:54.594Z,9.49
2023-04-11T22:38:22.563Z,9.47
2023-04-11T22:40:50.462Z,9.47
2023-04-11T22:43:18.552Z,9.46
2023-04-11T22:45:47.932Z,9.47
2023-04-11T22:48:16.332Z,9.44
2023-04-11T22:50:49.551Z,9.49
2023-04-11T22:53:18.182Z,9.49
2023-04-11T22:55:46.211Z,9.41
2023-04-11T22:58:14.178Z,9.37
2023-04-11T23:00:43.793Z,9.40
2023-04-11T23:03:14.105Z,9.37
2023-04-11T23:05:43.360Z,9.22
2023-04-11T23:08:11.616Z,9.32
2023-04-11T23:10:39.741Z,9.01
2023-04-11T23:13:08.635Z,9.36
2023-04-11T23:15:37.486Z,9.37
2023-04-11T23:18:05.582Z,9.06
2023-04-11T23:20:37.060Z,9.41
2023-04-11T23:23:05.769Z,9.42
2023-04-11T23:25:34.849Z,9.30
2023-04-11T23:28:02.834Z,9.33
2023-04-11T23:30:30.859Z,9.37
2023-04-11T23:32:59.708Z,9.17
2023-04-11T23:35:28.044Z,9.35
2023-04-11T23:37:57.675Z,9.34
2023-04-11T23:40:25.940Z,9.28
2023-04-11T23:42:53.964Z,9.19
2023-04-11T23:45:22.673Z,9.27
2023-04-11T23:47:51.032Z,9.25
2023-04-11T23:50:19.379Z,9.12
2023-04-11T23:52:47.654Z,9.26
2023-04-11T23:55:16.927Z,9.27
2023-04-11T23:57:44.912Z,9.25
